Jefferson, MD

12:04 AM EST on February 12, 2016 (GMT -0500)
WXFRNX | | Change Station
CLOSE
Current Station
Personal Weather Station
Location: Jefferson, MD
Elevation: 597 ft
Nearby Weather Stations

Elev 597 ft 39.37 °N, 77.53 °W | Updated 41 seconds ago

Clear
Clear
16.5 °F
Feels Like 16 °F
N
3.0
Wind Variable Wind from WNW
Gusts 0.0 mph

Today
High -- | Low -- °F
--% Chance of Precip.
Yesterday
High -- | Low -- °F
Precip. -- in
Pressure 30.33 in
Visibility 10.0 miles
Clouds Clear
Windchill 16 °F
Dew Point 3 °F
Humidity 54%
Rainfall 0.00 in
Snow Depth Not available.
7:06 AM 5:42 PM
Waxing Crescent, 17% visible
METAR KFDK 120455Z AUTO 29005KT 10SM CLR M08/M15 A3033 RMK AO2
Pressure 30.33 in
Visibility 10.0 miles
Clouds Clear
Windchill 16 °F
Dew Point 3 °F
Humidity 54%
Rainfall 0.00 in
Snow Depth Not available.
7:06 AM 5:42 PM
Waxing Crescent, 17% visible
METAR KFDK 120455Z AUTO 29005KT 10SM CLR M08/M15 A3033 RMK AO2

10-Day Weather Forecast

Almanac

Astronomy

Feb. 12, 2016 Rise Set
Actual Time
Civil Twilight
Nautical Twilight
Astronomical Twilight
Moon
Length of Visible Light
Length of Day
Tomorrow will be .
, % of the Moon is Illuminated

Today's Extremes

State Highs State Lows

Community

WunderPhotos

Upload Photos

1,892,265 photos uploaded!

WunderBlog® & News

Nearby

Air Quality

  Air Quality AQ Index Pollutant
Not available.

Snow Depth

Station Depth Elevation

Earthquake Activity

City Distance Mag. Time & Date
Minimum magnitude displayed is 2.5.

Coastal Water Temperatures

Place Temperature

Stations

Nearby Weather Stations

Station Location Temp. Windchill Dew Point Humidity Wind Precip. Elev Updated Type
                   

Watches & Warnings

There are currently no watches in effect.